createdAt,value
2022-10-13T00:00:46.933Z,6.01
2022-10-13T00:03:14.510Z,5.96
2022-10-13T00:05:50.006Z,5.80
2022-10-13T00:08:19.969Z,5.78
2022-10-13T00:10:49.342Z,5.80
2022-10-13T00:13:19.678Z,5.72
2022-10-13T00:15:47.620Z,5.72
2022-10-13T00:18:15.428Z,5.64
2022-10-13T00:20:48.600Z,5.64
2022-10-13T00:23:16.684Z,5.68
2022-10-13T00:25:45.337Z,5.73
2022-10-13T00:28:12.491Z,5.71
2022-10-13T00:30:39.665Z,5.71
2022-10-13T00:33:07.156Z,5.62
2022-10-13T00:35:34.514Z,5.64
2022-10-13T00:38:01.228Z,5.56
2022-10-13T00:40:30.985Z,5.68
2022-10-13T00:42:57.829Z,5.65
2022-10-13T00:45:29.670Z,5.57
2022-10-13T00:47:59.289Z,5.65
2022-10-13T00:50:32.246Z,5.64
2022-10-13T00:53:01.249Z,5.58
2022-10-13T00:55:33.514Z,5.68
2022-10-13T00:58:05.404Z,5.76
2022-10-13T01:00:34.078Z,5.81
2022-10-13T01:03:02.213Z,5.83
2022-10-13T01:05:29.774Z,5.92
2022-10-13T01:07:57.921Z,5.93
2022-10-13T01:10:45.476Z,5.86
2022-10-13T01:13:17.957Z,5.93
2022-10-13T01:15:47.638Z,5.90
2022-10-13T01:18:22.785Z,5.82
2022-10-13T01:20:59.491Z,5.81
2022-10-13T01:24:07.375Z,5.69
2022-10-13T01:26:59.530Z,5.67
2022-10-13T01:30:05.258Z,5.73
2022-10-13T01:32:43.996Z,5.79
2022-10-13T01:35:18.039Z,5.80
2022-10-13T01:38:16.189Z,5.81
2022-10-13T01:40:45.328Z,5.84
2022-10-13T01:43:20.021Z,5.71
2022-10-13T01:45:54.681Z,5.61
2022-10-13T01:48:22.284Z,5.63
2022-10-13T01:50:53.259Z,5.54
2022-10-13T01:53:21.301Z,5.55
2022-10-13T01:55:58.840Z,5.60
2022-10-13T01:58:29.274Z,5.61
2022-10-13T02:01:22.509Z,5.56
2022-10-13T02:04:18.634Z,5.58
2022-10-13T02:07:00.930Z,5.57
2022-10-13T02:09:50.328Z,5.60
2022-10-13T02:12:25.598Z,5.57
2022-10-13T02:14:55.732Z,5.58
2022-10-13T02:17:23.059Z,5.56
2022-10-13T02:19:50.226Z,5.51
2022-10-13T02:22:18.372Z,5.47
2022-10-13T02:24:45.259Z,5.45
2022-10-13T02:27:12.946Z,5.36
2022-10-13T02:29:54.879Z,5.27
2022-10-13T02:32:25.296Z,5.29
2022-10-13T02:34:53.105Z,5.30
2022-10-13T02:37:20.245Z,5.24
2022-10-13T02:39:47.058Z,5.22
2022-10-13T02:42:13.774Z,5.23
2022-10-13T02:44:40.518Z,5.20
2022-10-13T02:47:07.168Z,5.15
2022-10-13T02:49:33.924Z,5.17
2022-10-13T02:52:00.766Z,5.27
2022-10-13T02:54:27.449Z,5.37
2022-10-13T02:56:54.367Z,5.24
2022-10-13T02:59:21.050Z,5.13
2022-10-13T03:01:47.745Z,5.05
2022-10-13T03:04:14.542Z,5.07
2022-10-13T03:06:41.223Z,5.04
2022-10-13T03:09:09.436Z,4.96
2022-10-13T03:11:36.440Z,4.90
2022-10-13T03:14:03.254Z,5.00
2022-10-13T03:16:30.116Z,5.06
2022-10-13T03:18:56.811Z,5.10
2022-10-13T03:21:23.584Z,5.16
2022-10-13T03:23:50.424Z,5.07
2022-10-13T03:26:18.921Z,5.03
2022-10-13T03:28:50.708Z,5.11
2022-10-13T03:31:18.371Z,5.13
2022-10-13T03:33:46.842Z,5.17
2022-10-13T03:36:13.674Z,5.20
2022-10-13T03:38:42.771Z,5.18
2022-10-13T03:41:14.029Z,5.22
2022-10-13T03:43:41.457Z,5.26
2022-10-13T03:46:10.638Z,5.31
2022-10-13T03:48:37.951Z,5.28
2022-10-13T03:51:17.338Z,5.28
2022-10-13T03:53:50.786Z,5.13
2022-10-13T03:56:19.944Z,4.99
2022-10-13T03:58:59.199Z,4.84
2022-10-13T04:01:28.456Z,4.63
2022-10-13T04:03:56.547Z,4.58
2022-10-13T04:06:25.449Z,4.68
2022-10-13T04:08:52.994Z,4.58
2022-10-13T04:11:20.629Z,4.68
2022-10-13T04:13:51.083Z,4.87
2022-10-13T04:16:20.396Z,4.96
2022-10-13T04:18:52.588Z,5.07
2022-10-13T04:21:19.343Z,5.04
2022-10-13T04:23:45.991Z,4.83
2022-10-13T04:26:18.490Z,4.67
2022-10-13T04:28:46.848Z,4.50
2022-10-13T04:31:13.735Z,4.30
2022-10-13T04:33:40.764Z,4.45
2022-10-13T04:36:10.682Z,4.41
2022-10-13T04:38:37.374Z,4.41
2022-10-13T04:41:08.564Z,4.47
2022-10-13T04:43:35.700Z,4.55
2022-10-13T04:46:02.310Z,4.57
2022-10-13T04:48:29.531Z,4.63
2022-10-13T04:51:04.425Z,4.67
2022-10-13T04:53:32.145Z,4.67
2022-10-13T04:56:08.456Z,4.66
2022-10-13T04:58:37.061Z,4.64
2022-10-13T05:01:06.730Z,4.64
2022-10-13T05:03:34.839Z,4.70
2022-10-13T05:06:01.698Z,4.69
2022-10-13T05:08:28.599Z,4.72
2022-10-13T05:10:56.303Z,4.70
2022-10-13T05:13:23.765Z,4.70
2022-10-13T05:15:51.631Z,4.74
2022-10-13T05:18:21.672Z,4.72
2022-10-13T05:20:48.607Z,4.66
2022-10-13T05:23:16.337Z,4.64
2022-10-13T05:25:43.281Z,4.66
2022-10-13T05:28:12.961Z,4.73
2022-10-13T05:30:39.833Z,4.81
2022-10-13T05:33:06.572Z,4.88
2022-10-13T05:35:33.411Z,4.89
2022-10-13T05:38:00.111Z,4.81
2022-10-13T05:40:28.473Z,4.75
2022-10-13T05:43:00.476Z,4.72
2022-10-13T05:45:29.830Z,4.66
2022-10-13T05:47:56.609Z,4.66
2022-10-13T05:50:23.500Z,4.65
2022-10-13T05:52:51.688Z,4.70
2022-10-13T05:55:19.384Z,4.69
2022-10-13T05:57:51.579Z,4.74
2022-10-13T06:00:20.041Z,4.76
2022-10-13T06:02:57.869Z,4.74
2022-10-13T06:05:27.541Z,4.78
2022-10-13T06:07:56.078Z,4.86
2022-10-13T06:10:23.471Z,4.93
2022-10-13T06:12:50.374Z,4.93
2022-10-13T06:15:17.206Z,4.95
2022-10-13T06:17:44.007Z,4.99
2022-10-13T06:20:11.435Z,4.95
2022-10-13T06:22:38.767Z,4.95
2022-10-13T06:25:06.970Z,4.90
2022-10-13T06:27:33.763Z,4.87
2022-10-13T06:30:00.513Z,4.78
2022-10-13T06:32:27.364Z,4.73
2022-10-13T06:34:54.897Z,4.68
2022-10-13T06:37:26.972Z,4.66
2022-10-13T06:39:54.231Z,4.66
2022-10-13T06:42:21.363Z,4.66
2022-10-13T06:45:05.112Z,4.69
2022-10-13T06:47:31.849Z,4.79
2022-10-13T06:49:58.512Z,4.91
2022-10-13T06:52:25.599Z,5.00
2022-10-13T06:54:52.345Z,5.13
2022-10-13T06:57:19.020Z,5.26
2022-10-13T06:59:45.707Z,5.32
2022-10-13T07:02:12.413Z,5.40
2022-10-13T07:04:39.057Z,5.52
2022-10-13T07:07:05.721Z,5.58
2022-10-13T07:09:32.415Z,5.66
2022-10-13T07:11:59.368Z,5.71
2022-10-13T07:14:26.172Z,5.93
2022-10-13T07:16:53.233Z,6.48
2022-10-13T07:19:20.012Z,6.98
2022-10-13T07:21:46.732Z,7.60
2022-10-13T07:24:13.601Z,7.74
2022-10-13T07:26:40.440Z,8.29
2022-10-13T07:29:08.138Z,8.53
2022-10-13T07:31:35.024Z,8.91
2022-10-13T07:34:02.231Z,9.32
2022-10-13T07:36:29.666Z,9.76
2022-10-13T07:38:56.345Z,10.05
2022-10-13T07:41:22.957Z,10.02
2022-10-13T07:43:54.894Z,10.52
2022-10-13T07:46:21.611Z,10.66
2022-10-13T07:48:48.529Z,10.90
2022-10-13T07:51:15.575Z,11.12
2022-10-13T07:53:42.953Z,10.55
2022-10-13T07:56:11.976Z,9.57
2022-10-13T07:58:40.206Z,9.14
2022-10-13T08:01:08.057Z,10.19
2022-10-13T08:03:38.262Z,11.47
2022-10-13T08:06:06.280Z,11.89
2022-10-13T08:08:33.465Z,12.29
2022-10-13T08:11:04.710Z,12.63
2022-10-13T08:13:31.699Z,11.89
2022-10-13T08:16:04.746Z,11.20
2022-10-13T08:18:32.178Z,10.55
2022-10-13T08:23:50.776Z,10.16
2022-10-13T08:26:23.379Z,9.82
2022-10-13T08:29:09.398Z,10.28
2022-10-13T08:31:39.740Z,10.16
2022-10-13T08:34:06.850Z,9.84
2022-10-13T08:36:33.590Z,11.06
2022-10-13T08:39:00.249Z,11.91
2022-10-13T08:41:31.553Z,12.43
2022-10-13T08:47:06.446Z,12.15
2022-10-13T08:49:33.192Z,12.94
2022-10-13T08:52:05.336Z,13.04
2022-10-13T08:54:33.258Z,13.58
2022-10-13T08:59:27.838Z,13.75
2022-10-13T09:01:55.592Z,12.41
2022-10-13T09:04:39.326Z,11.61
2022-10-13T09:07:08.811Z,11.63
2022-10-13T09:09:36.841Z,10.44
2022-10-13T09:12:04.977Z,10.55
2022-10-13T09:14:38.152Z,11.04
2022-10-13T09:17:18.937Z,10.28
2022-10-13T09:20:15.952Z,9.95
2022-10-13T09:22:43.270Z,10.19
2022-10-13T09:25:12.686Z,10.15
2022-10-13T09:27:47.755Z,9.67
2022-10-13T09:30:34.906Z,9.75
2022-10-13T09:33:09.394Z,10.54
2022-10-13T09:35:37.672Z,11.13
2022-10-13T09:38:06.314Z,11.19
2022-10-13T09:40:33.757Z,10.59
2022-10-13T09:43:01.923Z,10.76
2022-10-13T09:45:31.026Z,10.65
2022-10-13T09:48:05.291Z,10.76
2022-10-13T09:50:35.256Z,10.87
2022-10-13T09:53:32.064Z,10.98
2022-10-13T09:56:19.072Z,10.79
2022-10-13T09:59:10.930Z,10.81
2022-10-13T10:01:43.937Z,11.03
2022-10-13T10:04:19.343Z,11.40
2022-10-13T10:06:46.802Z,12.00
2022-10-13T10:09:34.965Z,12.30
2022-10-13T10:12:03.578Z,12.67
2022-10-13T10:14:38.427Z,13.41
2022-10-13T10:17:14.126Z,13.13
2022-10-13T10:20:05.837Z,12.75
2022-10-13T10:22:44.351Z,12.69
2022-10-13T10:25:20.153Z,12.85
2022-10-13T10:28:06.314Z,12.73
2022-10-13T10:30:38.937Z,12.74
2022-10-13T10:33:13.363Z,12.76
2022-10-13T10:35:44.252Z,12.85
2022-10-13T10:38:14.017Z,13.02
2022-10-13T10:41:10.502Z,12.80
2022-10-13T10:43:51.978Z,12.99
2022-10-13T10:47:04.762Z,13.27
2022-10-13T10:49:36.791Z,13.08
2022-10-13T10:52:08.578Z,12.96
2022-10-13T10:54:51.936Z,13.04
2022-10-13T10:57:27.826Z,13.02
2022-10-13T11:00:06.438Z,13.15
2022-10-13T11:02:49.377Z,13.28
2022-10-13T11:05:16.823Z,13.20
2022-10-13T11:07:43.459Z,13.01
2022-10-13T11:10:10.151Z,12.74
2022-10-13T11:12:52.124Z,12.59
2022-10-13T11:15:27.422Z,12.32
2022-10-13T11:17:54.717Z,12.41
2022-10-13T11:20:21.277Z,12.48
2022-10-13T11:23:00.186Z,12.45
2022-10-13T11:25:44.577Z,12.48
2022-10-13T11:28:23.609Z,12.73
2022-10-13T11:30:51.566Z,12.68
2022-10-13T11:33:54.154Z,12.53
2022-10-13T11:36:29.983Z,12.44
2022-10-13T11:39:36.069Z,12.40
2022-10-13T11:42:05.764Z,12.29
2022-10-13T11:44:55.670Z,12.68
2022-10-13T11:47:25.664Z,12.65
2022-10-13T11:50:25.180Z,12.38
2022-10-13T11:53:17.451Z,12.60
2022-10-13T11:55:56.579Z,12.54
2022-10-13T11:58:31.548Z,12.53
2022-10-13T12:03:55.205Z,12.67
2022-10-13T12:06:34.066Z,12.70
2022-10-13T12:09:03.062Z,12.57
2022-10-13T12:11:34.013Z,12.55
2022-10-13T12:14:01.418Z,12.35
2022-10-13T12:16:29.523Z,12.34
2022-10-13T12:19:18.912Z,12.42
2022-10-13T12:21:55.026Z,12.45
2022-10-13T12:24:24.082Z,12.34
2022-10-13T12:26:52.059Z,12.38
2022-10-13T12:29:23.290Z,12.19
2022-10-13T12:31:51.325Z,12.15
2022-10-13T12:34:25.931Z,12.08
2022-10-13T12:36:57.120Z,12.11
2022-10-13T12:39:25.410Z,11.97
2022-10-13T12:41:53.150Z,11.96
2022-10-13T12:44:27.291Z,11.92
2022-10-13T12:46:58.742Z,12.07
2022-10-13T12:49:30.710Z,12.12
2022-10-13T12:52:09.572Z,12.07
2022-10-13T12:54:47.023Z,11.93
2022-10-13T12:57:37.746Z,11.90
2022-10-13T13:00:20.261Z,11.91
2022-10-13T13:02:56.365Z,11.88
2022-10-13T13:05:51.595Z,11.84
2022-10-13T13:08:29.859Z,11.81
2022-10-13T13:10:58.414Z,11.72
2022-10-13T13:13:25.763Z,11.75
2022-10-13T13:15:53.241Z,11.70
2022-10-13T13:18:39.561Z,11.67
2022-10-13T13:21:15.928Z,11.71
2022-10-13T13:23:49.542Z,11.74
2022-10-13T13:26:22.957Z,11.85
2022-10-13T13:28:51.865Z,11.90
2022-10-13T13:31:20.811Z,11.92
2022-10-13T13:33:48.493Z,12.07
2022-10-13T13:36:19.628Z,12.11
2022-10-13T13:38:47.885Z,12.13
2022-10-13T13:41:15.409Z,12.11
2022-10-13T13:43:42.378Z,12.09
2022-10-13T13:46:19.118Z,12.08
2022-10-13T13:48:45.821Z,12.01
2022-10-13T13:51:12.548Z,12.09
2022-10-13T13:53:39.336Z,12.22
2022-10-13T13:56:06.294Z,12.36
2022-10-13T13:58:33.034Z,12.42
2022-10-13T14:01:00.003Z,12.36
2022-10-13T14:03:26.741Z,12.41
2022-10-13T14:05:53.364Z,12.34
2022-10-13T14:08:20.118Z,12.33
2022-10-13T14:10:46.773Z,12.30
2022-10-13T14:13:17.834Z,12.22
2022-10-13T14:15:44.522Z,12.14
2022-10-13T14:18:11.232Z,12.19
2022-10-13T14:20:42.131Z,12.00
2022-10-13T14:23:08.837Z,11.91
2022-10-13T14:25:38.193Z,11.93
2022-10-13T14:28:05.037Z,11.82
2022-10-13T14:30:31.677Z,11.81
2022-10-13T14:32:58.465Z,11.85
2022-10-13T14:35:26.026Z,11.84
2022-10-13T14:37:52.785Z,11.78
2022-10-13T14:40:19.437Z,11.58
2022-10-13T14:42:46.109Z,11.43
2022-10-13T14:45:15.850Z,11.37
2022-10-13T14:47:42.667Z,11.34
2022-10-13T14:50:10.085Z,11.21
2022-10-13T14:52:36.804Z,11.28
2022-10-13T14:55:03.719Z,11.25
2022-10-13T14:57:30.469Z,11.23
2022-10-13T15:00:01.677Z,11.28
2022-10-13T15:02:29.107Z,11.40
2022-10-13T15:04:55.751Z,11.52
2022-10-13T15:07:22.783Z,11.55
2022-10-13T15:10:04.374Z,11.59
2022-10-13T15:12:32.687Z,11.55
2022-10-13T15:14:59.444Z,11.48
2022-10-13T15:17:26.291Z,11.50
2022-10-13T15:19:52.972Z,11.51
2022-10-13T15:22:20.188Z,11.49
2022-10-13T15:24:47.144Z,11.56
2022-10-13T15:27:13.846Z,11.51
2022-10-13T15:29:40.557Z,11.51
2022-10-13T15:32:11.025Z,11.63
2022-10-13T15:34:40.829Z,11.56
2022-10-13T15:37:07.765Z,11.60
2022-10-13T15:39:34.652Z,11.57
2022-10-13T15:42:01.727Z,11.58
2022-10-13T15:44:30.877Z,11.52
2022-10-13T15:47:07.910Z,11.54
2022-10-13T15:49:39.818Z,11.52
2022-10-13T15:52:06.687Z,11.49
2022-10-13T15:54:33.570Z,11.37
2022-10-13T15:57:00.381Z,11.34
2022-10-13T15:59:27.036Z,11.36
2022-10-13T16:01:53.713Z,11.31
2022-10-13T16:04:20.380Z,11.30
2022-10-13T16:06:47.080Z,11.26
2022-10-13T16:09:13.690Z,11.26
2022-10-13T16:11:40.439Z,11.24
2022-10-13T16:14:07.065Z,11.07
2022-10-13T16:16:33.787Z,11.09
2022-10-13T16:19:00.510Z,11.03
2022-10-13T16:21:27.526Z,10.97
2022-10-13T16:23:54.269Z,10.93
2022-10-13T16:26:21.107Z,10.91
2022-10-13T16:28:47.825Z,10.86
2022-10-13T16:31:16.515Z,10.90
2022-10-13T16:33:44.840Z,10.88
2022-10-13T16:36:16.982Z,10.89
2022-10-13T16:38:44.922Z,10.95
2022-10-13T16:41:17.695Z,10.96
2022-10-13T16:43:45.716Z,10.95
2022-10-13T16:46:14.269Z,10.93
2022-10-13T16:48:45.393Z,10.98
2022-10-13T16:51:18.416Z,11.02
2022-10-13T16:54:01.205Z,11.04
2022-10-13T16:56:31.131Z,11.11
2022-10-13T16:59:01.007Z,11.15
2022-10-13T17:01:28.602Z,11.16
2022-10-13T17:03:55.781Z,11.16
2022-10-13T17:06:24.949Z,11.07
2022-10-13T17:08:56.578Z,11.03
2022-10-13T17:11:26.257Z,10.95
2022-10-13T17:13:53.470Z,10.91
2022-10-13T17:16:20.471Z,10.88
2022-10-13T17:18:47.313Z,10.86
2022-10-13T17:21:16.756Z,10.85
2022-10-13T17:23:48.338Z,10.80
2022-10-13T17:26:17.055Z,10.81
2022-10-13T17:28:44.228Z,10.81
2022-10-13T17:31:22.778Z,10.86
2022-10-13T17:33:51.109Z,10.88
2022-10-13T17:36:26.289Z,10.83
2022-10-13T17:38:55.146Z,10.74
2022-10-13T17:41:23.348Z,10.71
2022-10-13T17:43:51.505Z,10.70
2022-10-13T17:46:38.314Z,10.74
2022-10-13T17:49:09.310Z,10.70
2022-10-13T17:51:36.222Z,10.71
2022-10-13T17:54:03.628Z,10.68
2022-10-13T17:56:30.513Z,10.63
2022-10-13T17:58:57.730Z,10.62
2022-10-13T18:01:29.001Z,10.61
2022-10-13T18:03:57.154Z,10.60
2022-10-13T18:06:37.756Z,10.51
2022-10-13T18:09:08.062Z,10.47
2022-10-13T18:11:35.037Z,10.44
2022-10-13T18:14:01.808Z,10.49
2022-10-13T18:16:28.594Z,10.44
2022-10-13T18:18:55.807Z,10.48
2022-10-13T18:21:26.226Z,10.49
2022-10-13T18:23:58.145Z,10.51
2022-10-13T18:26:26.233Z,10.51
2022-10-13T18:28:53.368Z,10.48
2022-10-13T18:31:24.367Z,10.49
2022-10-13T18:34:05.620Z,10.52
2022-10-13T18:36:33.174Z,10.53
2022-10-13T18:39:08.954Z,10.60
2022-10-13T18:41:36.952Z,10.56
2022-10-13T18:44:04.602Z,10.59
2022-10-13T18:46:32.952Z,10.60
2022-10-13T18:48:59.621Z,10.61
2022-10-13T18:51:26.610Z,10.59
2022-10-13T18:53:53.454Z,10.58
2022-10-13T18:56:23.577Z,10.58
2022-10-13T18:58:53.510Z,10.58
2022-10-13T19:01:24.767Z,10.54
2022-10-13T19:03:52.760Z,10.52
2022-10-13T19:06:26.932Z,10.51
2022-10-13T19:08:56.443Z,10.45
2022-10-13T19:11:24.341Z,10.31
2022-10-13T19:13:51.682Z,10.34
2022-10-13T19:16:21.169Z,10.32
2022-10-13T19:18:48.961Z,10.29
2022-10-13T19:21:16.353Z,10.26
2022-10-13T19:23:44.919Z,10.27
2022-10-13T19:26:28.282Z,10.26
2022-10-13T19:28:56.758Z,10.27
2022-10-13T19:31:25.953Z,10.26
2022-10-13T19:33:53.109Z,10.29
2022-10-13T19:36:26.049Z,10.30
2022-10-13T19:38:54.332Z,10.25
2022-10-13T19:41:21.404Z,10.29
2022-10-13T19:43:48.780Z,10.28
2022-10-13T19:46:15.968Z,10.29
2022-10-13T19:48:44.877Z,10.21
2022-10-13T19:51:11.836Z,10.19
2022-10-13T19:53:39.681Z,10.15
2022-10-13T19:56:07.513Z,10.07
2022-10-13T19:58:35.165Z,10.00
2022-10-13T20:01:08.206Z,9.95
2022-10-13T20:03:35.514Z,9.96
2022-10-13T20:06:06.536Z,9.96
2022-10-13T20:08:38.474Z,9.95
2022-10-13T20:11:07.516Z,9.93
2022-10-13T20:13:34.853Z,9.91
2022-10-13T20:16:09.650Z,9.92
2022-10-13T20:18:37.301Z,9.91
2022-10-13T20:21:05.627Z,9.89
2022-10-13T20:23:33.020Z,9.89
2022-10-13T20:26:08.938Z,9.84
2022-10-13T20:28:40.492Z,9.84
2022-10-13T20:31:12.879Z,9.89
2022-10-13T20:33:41.364Z,9.88
2022-10-13T20:36:14.106Z,9.90
2022-10-13T20:38:41.849Z,9.94
2022-10-13T20:41:14.020Z,9.96
2022-10-13T20:43:41.120Z,9.90
2022-10-13T20:46:09.127Z,9.90
2022-10-13T20:48:58.146Z,9.84
2022-10-13T20:51:24.574Z,9.84
2022-10-13T20:53:52.959Z,9.89
2022-10-13T20:56:22.641Z,9.92
2022-10-13T20:58:49.853Z,9.94
2022-10-13T21:01:17.842Z,9.97
2022-10-13T21:03:44.666Z,9.96
2022-10-13T21:06:13.134Z,9.96
2022-10-13T21:08:40.405Z,9.98
2022-10-13T21:11:10.570Z,9.95
2022-10-13T21:13:39.474Z,9.93
2022-10-13T21:16:12.275Z,9.86
2022-10-13T21:18:39.310Z,9.89
2022-10-13T21:21:08.833Z,9.80
2022-10-13T21:23:36.657Z,9.75
2022-10-13T21:26:05.484Z,9.65
2022-10-13T21:28:32.543Z,9.63
2022-10-13T21:31:26.316Z,9.54
2022-10-13T21:33:53.971Z,9.50
2022-10-13T21:36:26.052Z,9.47
2022-10-13T21:38:56.463Z,9.51
2022-10-13T21:41:23.356Z,9.53
2022-10-13T21:43:51.576Z,9.57
2022-10-13T21:46:23.359Z,9.64
2022-10-13T21:49:00.042Z,9.67
2022-10-13T21:51:30.320Z,9.64
2022-10-13T21:54:00.224Z,9.63
2022-10-13T21:56:30.978Z,9.61
2022-10-13T21:58:59.176Z,9.50
2022-10-13T22:01:26.038Z,9.49
2022-10-13T22:03:56.317Z,9.50
2022-10-13T22:06:34.888Z,9.50
2022-10-13T22:09:04.298Z,9.41
2022-10-13T22:11:33.855Z,9.43
2022-10-13T22:14:06.902Z,9.46
2022-10-13T22:16:59.645Z,9.46
2022-10-13T22:19:28.647Z,9.47
2022-10-13T22:22:00.367Z,9.51
2022-10-13T22:24:32.073Z,9.54
2022-10-13T22:26:59.124Z,9.62
2022-10-13T22:29:27.116Z,9.74
2022-10-13T22:31:58.276Z,9.68
2022-10-13T22:34:25.019Z,9.67
2022-10-13T22:36:52.140Z,9.70
2022-10-13T22:39:20.963Z,9.66
2022-10-13T22:41:53.171Z,9.72
2022-10-13T22:44:19.915Z,9.81
2022-10-13T22:46:46.611Z,9.79
2022-10-13T22:49:16.811Z,9.81
2022-10-13T22:51:43.576Z,9.70
2022-10-13T22:54:13.029Z,9.64
2022-10-13T22:56:40.436Z,9.58
2022-10-13T22:59:08.942Z,9.49
2022-10-13T23:01:36.504Z,9.44
2022-10-13T23:04:04.154Z,9.33
2022-10-13T23:06:32.853Z,9.29
2022-10-13T23:09:06.574Z,9.25
2022-10-13T23:11:34.380Z,9.23
2022-10-13T23:14:03.302Z,9.20
2022-10-13T23:16:30.308Z,9.13
2022-10-13T23:18:56.988Z,9.12
2022-10-13T23:21:26.593Z,9.12
2022-10-13T23:24:02.029Z,9.15
2022-10-13T23:26:29.711Z,9.15
2022-10-13T23:28:57.585Z,9.11
2022-10-13T23:31:25.328Z,9.11
2022-10-13T23:33:52.188Z,9.12
2022-10-13T23:36:21.836Z,9.14
2022-10-13T23:38:53.537Z,9.15
2022-10-13T23:41:20.257Z,9.23
2022-10-13T23:43:46.949Z,9.25
2022-10-13T23:46:13.802Z,9.30
2022-10-13T23:48:40.582Z,9.34
2022-10-13T23:51:13.061Z,9.35
2022-10-13T23:53:40.478Z,9.33
2022-10-13T23:56:08.825Z,9.32
2022-10-13T23:58:36.719Z,9.26
